Time;durP1;ratioP1;P1;durP2;ratioP2;P2;SDS_P1;SDS_P2;PMS_P1;PMS_P2;Temp;Humidity;BMP_temperature;BMP_pressure;BME280_temperature;BME280_humidity;BME280_pressure;Samples;Min_cycle;Max_cycle;Signal;HPM_P1;HPM_P2
2020/12/22 00:02:24;;;;;;;4.80;3.60;;;20.20;33.90;;;;;;8359225;28;20040;-49
2020/12/22 00:06:24;;;;;;;7.35;3.70;;;20.20;33.40;;;;;;8359713;28;20037;-49
2020/12/22 00:10:25;;;;;;;3.97;3.03;;;20.20;33.50;;;;;;8382337;28;20028;-49
2020/12/22 00:14:25;;;;;;;4.20;3.47;;;20.10;33.40;;;;;;8376648;28;20036;-49
2020/12/22 00:18:26;;;;;;;4.93;3.00;;;20.10;33.50;;;;;;8394295;28;20064;-49
2020/12/22 00:22:28;;;;;;;3.00;2.70;;;20.10;33.50;;;;;;8335475;28;20506;-48
2020/12/22 00:26:28;;;;;;;4.13;3.22;;;20.10;33.50;;;;;;8325880;28;20499;-48
2020/12/22 00:30:29;;;;;;;5.03;3.00;;;20.10;33.50;;;;;;8325846;28;20033;-49
2020/12/22 00:34:33;;;;;;;4.80;2.87;;;20.10;33.60;;;;;;8360004;28;20125;-49
2020/12/22 00:38:33;;;;;;;3.33;2.70;;;20.10;33.60;;;;;;8358597;28;20510;-52
2020/12/22 00:42:34;;;;;;;3.80;2.77;;;20.10;33.50;;;;;;8358236;28;20053;-49
2020/12/22 00:46:34;;;;;;;3.90;3.00;;;20.10;33.60;;;;;;8324298;28;20033;-49
2020/12/22 00:50:35;;;;;;;3.13;2.43;;;20.00;33.60;;;;;;8345552;28;20478;-50
2020/12/22 00:54:35;;;;;;;4.57;2.73;;;20.00;33.60;;;;;;8389032;28;20159;-47
2020/12/22 00:58:36;;;;;;;2.50;2.30;;;20.00;33.60;;;;;;8389151;28;20036;-51
2020/12/22 01:02:36;;;;;;;3.33;2.70;;;20.00;33.60;;;;;;8374694;28;20033;-49
2020/12/22 01:06:38;;;;;;;3.83;2.60;;;20.00;33.60;;;;;;8357923;28;20048;-48
2020/12/22 01:10:38;;;;;;;5.00;3.88;;;20.00;33.60;;;;;;8393602;28;20090;-48
2020/12/22 01:14:39;;;;;;;4.20;3.10;;;19.90;33.60;;;;;;8390914;28;20374;-50
2020/12/22 01:18:39;;;;;;;5.97;2.80;;;20.00;33.70;;;;;;8390765;28;20449;-46
2020/12/22 01:22:40;;;;;;;6.47;2.77;;;19.90;33.60;;;;;;8351201;28;20038;-48
2020/12/22 01:26:40;;;;;;;3.43;2.23;;;19.90;33.70;;;;;;8328959;28;20029;-46
2020/12/22 01:30:41;;;;;;;3.63;2.80;;;19.90;33.70;;;;;;8347802;28;20064;-45
2020/12/22 01:34:41;;;;;;;3.83;2.80;;;19.90;33.70;;;;;;8324581;28;20036;-49
2020/12/22 01:38:42;;;;;;;4.93;2.87;;;19.90;33.70;;;;;;8341315;28;20056;-47
2020/12/22 01:42:43;;;;;;;3.40;2.77;;;19.90;33.70;;;;;;8359558;28;20159;-48
2020/12/22 01:46:47;;;;;;;3.50;2.50;;;19.90;33.70;;;;;;8333243;28;20041;-48
2020/12/22 01:50:48;;;;;;;3.55;2.42;;;19.90;33.70;;;;;;8379933;28;20028;-47
2020/12/22 01:54:48;;;;;;;3.50;2.87;;;19.90;33.80;;;;;;8388699;28;20021;-47
2020/12/22 01:58:49;;;;;;;2.57;2.37;;;19.90;33.80;;;;;;8380673;28;20482;-48
2020/12/22 02:02:49;;;;;;;3.93;2.83;;;19.90;33.80;;;;;;8379281;28;20071;-48
2020/12/22 02:06:50;;;;;;;2.87;2.57;;;19.80;33.80;;;;;;8335723;28;20033;-47
2020/12/22 02:10:51;;;;;;;4.83;3.30;;;19.80;33.70;;;;;;8328236;28;20033;-48
2020/12/22 02:14:51;;;;;;;2.83;2.28;;;19.80;33.80;;;;;;8348137;28;20040;-48
2020/12/22 02:18:53;;;;;;;3.23;2.50;;;19.80;34.30;;;;;;8340994;28;20029;-48
2020/12/22 02:22:54;;;;;;;3.85;2.30;;;19.80;33.80;;;;;;8352750;28;20509;-48
2020/12/22 02:26:54;;;;;;;2.57;2.30;;;19.80;33.80;;;;;;8330058;28;20061;-48
2020/12/22 02:30:55;;;;;;;3.90;2.53;;;19.80;33.80;;;;;;8327903;28;20088;-49
2020/12/22 02:34:55;;;;;;;3.33;2.47;;;19.80;33.90;;;;;;8330805;28;20036;-48
2020/12/22 02:38:56;;;;;;;3.07;2.50;;;19.70;33.80;;;;;;8332540;28;20038;-51
2020/12/22 02:43:09;;;;;;;2.77;2.37;;;19.70;33.80;;;;;;8375867;28;20056;-47
2020/12/22 02:47:12;;;;;;;2.80;2.42;;;19.70;33.90;;;;;;8346024;28;20116;-48
2020/12/22 02:51:13;;;;;;;3.22;2.40;;;19.70;33.90;;;;;;8328787;28;20417;-48
2020/12/22 02:55:13;;;;;;;2.37;2.17;;;19.70;33.90;;;;;;8360809;28;20029;-48
2020/12/22 02:59:14;;;;;;;4.10;2.50;;;19.70;34.00;;;;;;8348711;28;20083;-48
2020/12/22 03:03:14;;;;;;;2.47;2.27;;;19.70;33.90;;;;;;8328695;28;20041;-48
2020/12/22 03:07:15;;;;;;;2.73;2.20;;;19.70;34.00;;;;;;8326666;28;20509;-47
2020/12/22 03:11:15;;;;;;;2.80;2.10;;;19.70;34.00;;;;;;8331369;28;20394;-50
2020/12/22 03:15:16;;;;;;;2.67;2.07;;;19.70;34.00;;;;;;8329891;28;20048;-48
2020/12/22 03:19:17;;;;;;;2.87;2.13;;;19.70;34.00;;;;;;8331400;28;20051;-49
2020/12/22 03:23:17;;;;;;;3.10;2.53;;;19.70;34.00;;;;;;8374483;28;20052;-48
2020/12/22 03:27:18;;;;;;;3.53;2.73;;;19.70;34.10;;;;;;8393557;28;20098;-48
2020/12/22 03:31:18;;;;;;;3.10;2.30;;;19.60;34.00;;;;;;8396381;28;20074;-48
2020/12/22 03:35:19;;;;;;;2.83;2.37;;;19.60;34.00;;;;;;8393816;28;20036;-47
2020/12/22 03:39:19;;;;;;;3.60;2.07;;;19.60;34.00;;;;;;8393406;28;20031;-48
2020/12/22 03:43:20;;;;;;;3.42;2.40;;;19.60;34.00;;;;;;8391352;28;20044;-49
2020/12/22 03:47:21;;;;;;;3.43;2.30;;;19.60;34.00;;;;;;8397597;28;20524;-48
2020/12/22 03:51:21;;;;;;;2.35;2.05;;;19.60;34.10;;;;;;8392608;28;20047;-48
2020/12/22 03:55:22;;;;;;;3.57;2.33;;;19.60;34.10;;;;;;8340005;28;20036;-48
2020/12/22 03:59:23;;;;;;;2.63;2.17;;;19.60;34.10;;;;;;8326880;28;20037;-49
2020/12/22 04:03:25;;;;;;;2.80;2.20;;;19.60;34.10;;;;;;8326523;28;20495;-47
2020/12/22 04:07:25;;;;;;;2.45;2.03;;;19.60;34.10;;;;;;8335329;28;20033;-49
2020/12/22 04:11:26;;;;;;;2.43;2.10;;;19.50;34.10;;;;;;8369349;28;20048;-48
2020/12/22 04:15:26;;;;;;;2.33;2.10;;;19.50;34.30;;;;;;8382156;28;20025;-49
2020/12/22 04:19:27;;;;;;;2.27;2.00;;;19.60;34.40;;;;;;8383720;28;20041;-49
2020/12/22 04:23:28;;;;;;;2.20;2.00;;;19.60;34.40;;;;;;8363437;28;20387;-48
2020/12/22 04:27:28;;;;;;;2.80;2.10;;;19.60;34.30;;;;;;8381875;28;20043;-48
2020/12/22 04:31:29;;;;;;;1.90;1.80;;;19.60;34.30;;;;;;8389390;28;20274;-48
2020/12/22 04:35:29;;;;;;;2.47;1.93;;;19.70;34.20;;;;;;8391623;28;20473;-49
2020/12/22 04:39:30;;;;;;;2.27;1.73;;;19.70;34.10;;;;;;8372464;28;20037;-48
2020/12/22 04:43:31;;;;;;;2.27;1.63;;;19.80;34.00;;;;;;8388488;28;20389;-48
2020/12/22 04:47:32;;;;;;;3.60;2.03;;;19.80;34.50;;;;;;8376012;28;20029;-48
2020/12/22 04:51:36;;;;;;;1.92;1.73;;;19.90;34.00;;;;;;8357887;28;20030;-49
2020/12/22 04:55:37;;;;;;;2.20;1.70;;;19.90;34.00;;;;;;8364194;28;20111;-48
2020/12/22 04:59:39;;;;;;;2.35;1.70;;;19.90;33.90;;;;;;8379359;28;20025;-49
2020/12/22 05:03:39;;;;;;;1.67;1.55;;;20.00;33.90;;;;;;8357876;28;20543;-48
2020/12/22 05:07:41;;;;;;;2.80;1.83;;;20.00;34.00;;;;;;8348715;28;20033;-48
2020/12/22 05:11:41;;;;;;;1.88;1.60;;;20.00;33.90;;;;;;8357972;28;20206;-47
2020/12/22 05:15:43;;;;;;;2.47;1.80;;;20.10;34.00;;;;;;8360662;28;20041;-46
2020/12/22 05:19:43;;;;;;;2.33;1.98;;;20.10;33.90;;;;;;8357808;28;20033;-49
2020/12/22 05:23:46;;;;;;;2.03;1.60;;;20.10;33.90;;;;;;8357855;28;20094;-48
2020/12/22 05:27:49;;;;;;;1.65;1.55;;;20.20;34.00;;;;;;8356234;28;20033;-47
2020/12/22 05:31:50;;;;;;;1.95;1.75;;;20.20;33.90;;;;;;8358405;28;20071;-49
2020/12/22 05:35:51;;;;;;;;;;;20.20;33.90;;;;;;8395490;28;20537;-47
2020/12/22 05:39:53;;;;;;;1.90;1.60;;;20.30;34.00;;;;;;8339164;28;19913;-48
2020/12/22 05:43:53;;;;;;;1.65;1.48;;;20.30;34.00;;;;;;8358528;28;20076;-47
2020/12/22 05:47:54;;;;;;;1.60;1.40;;;20.30;33.90;;;;;;8363890;28;20033;-46
2020/12/22 05:51:55;;;;;;;1.77;1.40;;;20.30;34.00;;;;;;8364521;28;20401;-48
2020/12/22 05:56:14;;;;;;;1.45;1.35;;;20.30;34.00;;;;;;8369591;28;20374;-47
2020/12/22 06:00:15;;;;;;;1.90;1.73;;;20.40;34.00;;;;;;8396038;28;20124;-46
2020/12/22 06:04:17;;;;;;;3.35;1.70;;;20.40;34.10;;;;;;8394438;28;20094;-47
2020/12/22 06:08:18;;;;;;;2.28;1.65;;;20.40;34.10;;;;;;8395908;28;20075;-49
2020/12/22 06:12:20;;;;;;;2.07;1.80;;;20.40;34.00;;;;;;8400434;28;20478;-47
2020/12/22 06:16:21;;;;;;;1.70;1.60;;;20.40;34.10;;;;;;8394118;28;20059;-47
2020/12/22 06:20:24;;;;;;;1.50;1.33;;;20.50;34.10;;;;;;8395858;28;20044;-49
2020/12/22 06:24:25;;;;;;;2.67;1.55;;;20.50;34.10;;;;;;8395386;28;20136;-48
2020/12/22 06:28:29;;;;;;;1.67;1.50;;;20.50;34.00;;;;;;8398466;28;20451;-47
2020/12/22 06:32:30;;;;;;;1.77;1.45;;;20.50;34.60;;;;;;8380158;28;20040;-47
2020/12/22 06:36:31;;;;;;;2.00;1.83;;;20.50;34.10;;;;;;8361694;28;20082;-49
2020/12/22 06:40:52;;;;;;;2.17;1.87;;;20.50;34.10;;;;;;8392212;28;20041;-48
2020/12/22 06:44:53;;;;;;;2.85;1.50;;;20.60;34.10;;;;;;8376438;28;20041;-48
2020/12/22 06:48:54;;;;;;;1.43;1.33;;;20.50;34.10;;;;;;8391355;28;20549;-50
2020/12/22 06:52:54;;;;;;;1.83;1.43;;;20.60;34.10;;;;;;8384605;28;20033;-51
2020/12/22 06:56:55;;;;;;;2.00;1.43;;;20.60;34.10;;;;;;8379525;28;20059;-52
2020/12/22 07:00:55;;;;;;;1.80;1.60;;;20.60;34.20;;;;;;8359219;28;20033;-50
2020/12/22 07:04:57;;;;;;;2.23;1.77;;;20.70;34.10;;;;;;8332662;28;20056;-48
2020/12/22 07:08:58;;;;;;;2.17;1.83;;;20.70;34.20;;;;;;8327621;28;20059;-48
2020/12/22 07:12:59;;;;;;;2.03;1.63;;;20.60;34.10;;;;;;8326599;28;20525;-47
2020/12/22 07:17:00;;;;;;;2.03;1.57;;;20.70;34.20;;;;;;8338613;28;20029;-47
2020/12/22 07:21:01;;;;;;;;;;;20.70;34.20;;;;;;8380649;28;20036;-48
2020/12/22 07:25:04;;;;;;;3.27;1.93;;;20.70;34.20;;;;;;8396762;28;20353;-47
2020/12/22 07:29:06;;;;;;;2.03;1.67;;;20.70;34.20;;;;;;8393786;28;20063;-48
2020/12/22 07:33:06;;;;;;;2.25;1.77;;;20.70;34.20;;;;;;8373352;28;20049;-47
2020/12/22 07:37:12;;;;;;;2.10;1.87;;;20.70;34.20;;;;;;8382168;28;20119;-47
2020/12/22 07:41:24;;;;;;;2.90;2.17;;;20.70;34.20;;;;;;8352043;28;20071;-48
2020/12/22 07:45:25;;;;;;;2.22;1.92;;;20.70;34.30;;;;;;8350163;28;20045;-48
2020/12/22 07:49:26;;;;;;;2.53;1.97;;;20.70;34.30;;;;;;8379416;28;20144;-48
2020/12/22 07:53:26;;;;;;;2.10;1.90;;;20.80;34.30;;;;;;8376950;28;20056;-48
2020/12/22 07:57:29;;;;;;;1.87;1.63;;;20.70;34.20;;;;;;8358496;28;20033;-47
2020/12/22 08:01:40;;;;;;;3.55;2.58;;;20.80;34.20;;;;;;8329117;28;20135;-50
2020/12/22 08:05:55;;;;;;;3.72;2.30;;;20.80;34.30;;;;;;8326615;28;20510;-47
2020/12/22 08:09:56;;;;;;;2.40;1.80;;;20.80;34.30;;;;;;8345165;28;20451;-49
2020/12/22 08:13:57;;;;;;;2.97;2.10;;;20.80;34.30;;;;;;8392099;28;20040;-48
2020/12/22 08:17:58;;;;;;;1.92;1.70;;;20.80;34.20;;;;;;8378143;28;20482;-47
2020/12/22 08:21:59;;;;;;;2.65;2.20;;;20.80;34.30;;;;;;8359917;28;20178;-47
2020/12/22 08:26:00;;;;;;;2.30;2.00;;;20.80;34.20;;;;;;8370161;28;20033;-48
2020/12/22 08:30:01;;;;;;;2.67;1.75;;;20.90;34.30;;;;;;8339495;28;20033;-48
2020/12/22 08:34:05;;;;;;;2.45;2.25;;;20.90;34.30;;;;;;8354379;28;20108;-47
2020/12/22 08:38:20;;;;;;;3.17;1.98;;;20.90;34.30;;;;;;8396027;28;20028;-47
2020/12/22 08:42:21;;;;;;;4.53;2.20;;;20.90;34.30;;;;;;8369265;28;20076;-48
2020/12/22 08:46:22;;;;;;;2.40;1.73;;;20.90;34.30;;;;;;8338402;28;20669;-47
2020/12/22 08:50:23;;;;;;;2.28;1.95;;;20.90;34.30;;;;;;8348462;28;20029;-48
2020/12/22 08:54:27;;;;;;;2.27;1.90;;;20.90;34.30;;;;;;8395819;28;20067;-51
2020/12/22 08:58:27;;;;;;;2.35;2.15;;;20.90;34.30;;;;;;8389310;28;20024;-48
2020/12/22 09:02:31;;;;;;;2.20;2.00;;;20.90;34.30;;;;;;8368293;28;20460;-48
2020/12/22 09:06:34;;;;;;;2.10;1.80;;;20.90;34.30;;;;;;8334704;28;20036;-47
2020/12/22 09:10:46;;;;;;;3.63;2.10;;;20.90;34.30;;;;;;8334448;28;20040;-48
2020/12/22 09:14:48;;;;;;;;;;;21.00;34.40;;;;;;8395757;28;20039;-48
2020/12/22 09:19:02;;;;;;;2.42;1.80;;;21.00;34.40;;;;;;8391929;28;20392;-50
2020/12/22 09:23:06;;;;;;;2.92;2.13;;;21.00;34.40;;;;;;8397271;28;20053;-48
2020/12/22 09:27:11;;;;;;;2.20;1.90;;;21.00;34.40;;;;;;8397254;28;20435;-47
2020/12/22 09:31:21;;;;;;;2.47;1.90;;;21.00;34.40;;;;;;8370228;28;20117;-49
2020/12/22 09:35:21;;;;;;;3.70;2.55;;;21.00;34.40;;;;;;8387669;28;20037;-48
2020/12/22 09:39:23;;;;;;;4.20;2.57;;;21.00;34.40;;;;;;8337572;28;20037;-48
2020/12/22 09:43:23;;;;;;;3.53;2.20;;;21.00;34.40;;;;;;8377060;28;20067;-48
2020/12/22 09:47:24;;;;;;;3.37;2.50;;;21.00;34.40;;;;;;8397157;28;20024;-47
2020/12/22 09:51:24;;;;;;;2.63;2.43;;;21.10;34.50;;;;;;8378511;28;20031;-47
2020/12/22 09:55:25;;;;;;;2.70;2.47;;;21.00;34.40;;;;;;8337606;28;20029;-48
2020/12/22 09:59:25;;;;;;;3.20;2.17;;;21.10;34.50;;;;;;8363238;28;20029;-48
2020/12/22 10:03:26;;;;;;;2.77;2.43;;;21.10;34.50;;;;;;8373147;28;20131;-49
2020/12/22 10:07:26;;;;;;;3.07;2.77;;;21.10;34.50;;;;;;8395827;28;20028;-49
2020/12/22 10:11:31;;;;;;;2.63;2.43;;;21.10;35.10;;;;;;8352437;28;20076;-48
2020/12/22 10:15:31;;;;;;;3.97;2.50;;;21.10;34.60;;;;;;8377763;28;20037;-48
2020/12/22 10:19:32;;;;;;;3.87;2.50;;;21.10;34.60;;;;;;8361996;28;20494;-47
2020/12/22 10:23:33;;;;;;;3.60;2.50;;;21.10;34.60;;;;;;8357037;28;20115;-49
2020/12/22 10:27:34;;;;;;;3.53;2.75;;;21.10;34.60;;;;;;8333925;28;20120;-49
2020/12/22 10:31:34;;;;;;;3.03;2.27;;;21.20;34.60;;;;;;8335229;28;20095;-48
2020/12/22 10:35:35;;;;;;;4.57;2.40;;;21.20;34.60;;;;;;8362505;28;20037;-48
2020/12/22 10:39:36;;;;;;;3.38;2.20;;;21.20;34.60;;;;;;8362363;28;20071;-47
2020/12/22 10:43:37;;;;;;;3.00;2.10;;;21.20;34.60;;;;;;8364667;28;20049;-47
2020/12/22 10:47:38;;;;;;;3.17;2.17;;;21.20;34.60;;;;;;8362160;28;20067;-50
2020/12/22 10:51:38;;;;;;;4.07;2.50;;;21.20;34.70;;;;;;8361904;28;20029;-47
2020/12/22 10:55:39;;;;;;;3.40;2.00;;;21.20;34.70;;;;;;8352188;28;20448;-48
2020/12/22 10:59:40;;;;;;;2.33;1.80;;;21.30;34.70;;;;;;8345089;28;20056;-48
2020/12/22 11:03:41;;;;;;;3.30;2.00;;;21.30;34.60;;;;;;8364147;28;20090;-47
2020/12/22 11:07:51;;;;;;;3.35;2.28;;;21.30;34.70;;;;;;8361197;28;20090;-47
2020/12/22 11:11:51;;;;;;;2.72;2.00;;;21.30;34.70;;;;;;8361967;28;20065;-48
2020/12/22 11:15:52;;;;;;;2.43;2.17;;;21.30;34.70;;;;;;8340477;28;20063;-51
2020/12/22 11:19:53;;;;;;;2.40;1.97;;;21.30;34.80;;;;;;8375360;28;20116;-48
2020/12/22 11:23:53;;;;;;;3.30;2.15;;;21.30;34.80;;;;;;8362866;28;20037;-48
2020/12/22 11:27:54;;;;;;;2.73;2.20;;;21.30;34.80;;;;;;8359168;28;20442;-49
2020/12/22 11:31:54;;;;;;;3.23;2.00;;;21.30;34.90;;;;;;8360474;28;20037;-48
2020/12/22 11:35:55;;;;;;;2.10;1.90;;;21.30;34.90;;;;;;8360116;28;20482;-47
2020/12/22 11:39:55;;;;;;;2.43;1.90;;;21.20;34.80;;;;;;8363109;28;20068;-49
2020/12/22 11:43:56;;;;;;;3.93;1.60;;;21.20;34.90;;;;;;8359207;28;20053;-47
2020/12/22 11:47:56;;;;;;;2.03;1.83;;;21.20;34.90;;;;;;8360066;28;20094;-48
2020/12/22 11:51:57;;;;;;;1.80;1.60;;;21.20;34.90;;;;;;8363235;28;20580;-47
2020/12/22 11:55:58;;;;;;;1.90;1.70;;;21.20;35.00;;;;;;8397103;28;20070;-47
2020/12/22 11:59:58;;;;;;;1.97;1.60;;;21.10;34.90;;;;;;8392512;28;20068;-47
2020/12/22 12:03:59;;;;;;;1.77;1.57;;;21.10;35.00;;;;;;8387805;28;20067;-48
2020/12/22 12:07:59;;;;;;;2.10;1.60;;;21.10;35.00;;;;;;8350623;28;20115;-49
2020/12/22 12:12:00;;;;;;;3.87;2.00;;;21.10;35.00;;;;;;8330639;28;20026;-49
2020/12/22 12:16:00;;;;;;;1.90;1.60;;;21.10;35.00;;;;;;8324862;28;20037;-48
2020/12/22 12:20:01;;;;;;;2.07;1.63;;;21.10;34.90;;;;;;8337130;28;20037;-48
2020/12/22 12:24:02;;;;;;;2.97;1.60;;;21.10;34.90;;;;;;8339578;28;20045;-48
2020/12/22 12:28:02;;;;;;;1.50;1.40;;;21.20;34.90;;;;;;8324242;28;20505;-48
2020/12/22 12:32:03;;;;;;;2.60;1.80;;;21.20;35.00;;;;;;8330473;28;20257;-48
2020/12/22 12:36:03;;;;;;;1.60;1.40;;;21.20;35.00;;;;;;8345517;28;20037;-48
2020/12/22 12:40:05;;;;;;;1.80;1.50;;;21.20;35.00;;;;;;8372239;28;20127;-48
2020/12/22 12:44:05;;;;;;;2.45;1.55;;;21.30;35.10;;;;;;8391098;28;20651;-49
2020/12/22 12:48:06;;;;;;;1.77;1.40;;;21.30;35.00;;;;;;8396012;28;20028;-48
2020/12/22 12:52:06;;;;;;;2.03;1.60;;;21.20;35.00;;;;;;8385408;28;20470;-49
2020/12/22 12:56:11;;;;;;;1.53;1.27;;;21.30;35.00;;;;;;8369865;28;20056;-49
2020/12/22 13:00:12;;;;;;;1.75;1.20;;;21.30;35.00;;;;;;8360830;28;20098;-49
2020/12/22 13:04:12;;;;;;;2.30;1.60;;;21.30;35.10;;;;;;8330173;28;20041;-48
2020/12/22 13:08:13;;;;;;;1.55;1.33;;;21.30;35.10;;;;;;8360645;28;20049;-48
2020/12/22 13:12:14;;;;;;;1.33;1.23;;;21.30;35.10;;;;;;8381293;28;20044;-48
2020/12/22 13:16:14;;;;;;;1.80;1.33;;;21.40;35.30;;;;;;8389397;28;20460;-49
2020/12/22 13:20:15;;;;;;;2.30;2.00;;;21.30;35.20;;;;;;8387271;28;20029;-48
2020/12/22 13:24:15;;;;;;;1.93;1.13;;;21.40;35.20;;;;;;8340698;28;20046;-50
2020/12/22 13:28:16;;;;;;;1.87;1.23;;;21.40;35.20;;;;;;8323075;28;20033;-50
2020/12/22 13:32:16;;;;;;;1.70;1.30;;;21.40;35.20;;;;;;8324430;28;20030;-49
2020/12/22 13:36:17;;;;;;;1.57;1.20;;;21.40;35.20;;;;;;8324834;28;20156;-51
2020/12/22 13:40:18;;;;;;;2.20;1.73;;;21.40;35.20;;;;;;8327561;28;20072;-49
2020/12/22 13:44:19;;;;;;;1.40;1.30;;;21.40;35.20;;;;;;8324363;28;20076;-50
2020/12/22 13:48:19;;;;;;;2.03;1.42;;;21.40;35.20;;;;;;8324726;28;20022;-52
2020/12/22 13:52:20;;;;;;;3.87;1.67;;;21.40;35.20;;;;;;8328455;28;20124;-49
2020/12/22 13:56:20;;;;;;;1.50;1.40;;;21.40;35.30;;;;;;8357477;28;20398;-48
2020/12/22 14:00:21;;;;;;;1.67;1.50;;;21.40;35.20;;;;;;8339093;28;20044;-49
2020/12/22 14:04:22;;;;;;;2.08;1.38;;;21.40;35.30;;;;;;8376378;28;20431;-47
2020/12/22 14:08:23;;;;;;;2.13;1.40;;;21.40;35.30;;;;;;8377926;28;20055;-52
2020/12/22 14:12:23;;;;;;;2.15;1.50;;;21.40;35.30;;;;;;8384993;28;20088;-51
2020/12/22 14:16:24;;;;;;;1.63;1.23;;;21.40;35.30;;;;;;8399140;28;20148;-48
2020/12/22 14:20:24;;;;;;;2.17;1.50;;;21.40;35.30;;;;;;8395861;28;20039;-48
2020/12/22 14:24:25;;;;;;;3.13;1.73;;;21.50;35.90;;;;;;8395616;28;20048;-51
2020/12/22 14:28:25;;;;;;;2.90;1.90;;;21.50;35.30;;;;;;8393716;28;20413;-49
2020/12/22 14:32:26;;;;;;;1.57;1.43;;;21.50;35.30;;;;;;8399654;28;20036;-52
2020/12/22 14:36:26;;;;;;;2.47;1.43;;;21.50;35.30;;;;;;8395254;28;20028;-49
2020/12/22 14:40:27;;;;;;;1.70;1.30;;;21.50;35.30;;;;;;8394054;28;20029;-51
2020/12/22 14:44:27;;;;;;;2.80;1.50;;;21.50;35.40;;;;;;8394968;28;20520;-50
2020/12/22 14:48:28;;;;;;;2.97;1.60;;;21.50;35.40;;;;;;8399393;28;20037;-48
2020/12/22 14:52:28;;;;;;;2.23;1.40;;;21.50;35.40;;;;;;8361047;28;20044;-48
2020/12/22 14:56:29;;;;;;;4.33;1.77;;;21.50;35.40;;;;;;8376181;28;20039;-48
2020/12/22 15:00:29;;;;;;;1.73;1.30;;;21.50;35.40;;;;;;8399117;28;20028;-47
2020/12/22 15:04:31;;;;;;;3.57;1.63;;;21.40;35.40;;;;;;8374541;28;20079;-48
2020/12/22 15:08:31;;;;;;;3.33;1.88;;;21.40;35.50;;;;;;8354567;28;20367;-48
2020/12/22 15:12:32;;;;;;;1.43;1.33;;;21.40;35.50;;;;;;8345625;28;20028;-48
2020/12/22 15:16:33;;;;;;;2.17;1.60;;;21.30;35.60;;;;;;8362104;28;20103;-48
2020/12/22 15:20:34;;;;;;;3.33;1.80;;;21.30;35.60;;;;;;8334314;28;20074;-48
2020/12/22 15:24:34;;;;;;;3.17;1.37;;;21.30;35.60;;;;;;8346575;28;20128;-50
2020/12/22 15:28:34;;;;;;;2.83;1.70;;;21.20;35.70;;;;;;8327777;28;20280;-49
2020/12/22 15:32:35;;;;;;;3.00;1.60;;;21.30;35.70;;;;;;8329882;28;20079;-48
2020/12/22 15:36:36;;;;;;;2.00;1.40;;;21.30;35.70;;;;;;8327277;28;20529;-51
2020/12/22 15:40:37;;;;;;;2.30;1.43;;;21.40;35.60;;;;;;8349471;28;20029;-49
2020/12/22 15:44:37;;;;;;;3.42;1.50;;;21.30;35.50;;;;;;8352009;28;20155;-47
2020/12/22 15:48:38;;;;;;;1.47;1.30;;;21.30;35.50;;;;;;8331446;28;20037;-54
2020/12/22 15:52:39;;;;;;;1.93;1.37;;;21.30;35.50;;;;;;8326604;28;20038;-51
2020/12/22 15:56:40;;;;;;;2.70;1.50;;;21.40;35.50;;;;;;8324779;28;20029;-48
2020/12/22 16:00:40;;;;;;;3.13;1.40;;;21.40;35.60;;;;;;8326469;28;20478;-48
2020/12/22 16:04:41;;;;;;;4.00;1.47;;;21.40;35.50;;;;;;8348883;28;20041;-51
2020/12/22 16:08:42;;;;;;;2.53;1.20;;;21.40;35.50;;;;;;8362132;28;20029;-48
2020/12/22 16:12:43;;;;;;;3.40;1.40;;;21.40;35.60;;;;;;8344449;28;20483;-52
2020/12/22 16:16:44;;;;;;;1.70;1.40;;;21.40;35.50;;;;;;8325840;28;20037;-51
2020/12/22 16:20:44;;;;;;;4.50;1.58;;;21.40;35.60;;;;;;8324082;28;20087;-51
2020/12/22 16:24:45;;;;;;;3.63;1.50;;;21.50;35.70;;;;;;8330216;28;20037;-50
2020/12/22 16:28:47;;;;;;;5.20;1.40;;;21.50;35.70;;;;;;8325323;28;20563;-48
2020/12/22 16:32:47;;;;;;;3.63;1.67;;;21.50;35.60;;;;;;8330852;28;20125;-50
2020/12/22 16:36:48;;;;;;;2.00;1.40;;;21.50;35.80;;;;;;8358345;28;20033;-48
2020/12/22 16:40:48;;;;;;;1.80;1.53;;;21.50;35.80;;;;;;8362806;28;20525;-49
2020/12/22 16:44:49;;;;;;;1.73;1.20;;;21.50;35.70;;;;;;8324232;28;20045;-48
2020/12/22 16:48:50;;;;;;;4.47;1.70;;;21.50;35.80;;;;;;8325384;28;20029;-49
2020/12/22 16:52:53;;;;;;;1.52;1.23;;;21.50;35.80;;;;;;8324904;28;20040;-50
2020/12/22 16:56:53;;;;;;;3.10;1.30;;;21.50;35.80;;;;;;8322850;28;21468;-49
2020/12/22 17:00:54;;;;;;;2.15;1.40;;;21.50;35.70;;;;;;8329383;28;20042;-49
2020/12/22 17:04:54;;;;;;;2.70;1.50;;;21.50;35.80;;;;;;8324644;28;20132;-48
2020/12/22 17:08:55;;;;;;;2.40;1.40;;;21.60;35.80;;;;;;8323101;28;20041;-48
2020/12/22 17:12:55;;;;;;;2.27;1.37;;;21.60;35.80;;;;;;8324903;28;20126;-48
2020/12/22 17:16:56;;;;;;;2.47;1.50;;;21.50;35.70;;;;;;8324839;28;20038;-47
2020/12/22 17:20:59;;;;;;;3.00;1.50;;;21.60;35.80;;;;;;8349897;28;20080;-48
2020/12/22 17:25:00;;;;;;;2.75;1.25;;;21.60;35.80;;;;;;8356201;28;20049;-49
2020/12/22 17:29:00;;;;;;;3.90;1.30;;;21.60;35.80;;;;;;8335010;28;20124;-48
2020/12/22 17:33:01;;;;;;;2.03;1.33;;;21.60;35.80;;;;;;8374698;28;20037;-49
2020/12/22 17:37:01;;;;;;;2.23;1.53;;;21.60;35.80;;;;;;8333931;28;20045;-49
2020/12/22 17:41:02;;;;;;;2.80;1.53;;;21.60;35.80;;;;;;8332777;28;20029;-51
2020/12/22 17:45:04;;;;;;;1.83;1.40;;;21.60;35.80;;;;;;8367278;28;20517;-47
2020/12/22 17:49:04;;;;;;;2.30;1.35;;;21.60;35.80;;;;;;8353085;28;20268;-46
2020/12/22 17:53:05;;;;;;;1.97;1.40;;;21.60;35.90;;;;;;8378300;28;20470;-45
2020/12/22 17:57:05;;;;;;;2.00;1.33;;;21.60;35.80;;;;;;8329636;28;20037;-46
2020/12/22 18:01:06;;;;;;;1.43;1.07;;;21.60;35.90;;;;;;8347492;28;20048;-46
2020/12/22 18:05:06;;;;;;;1.70;1.20;;;21.60;35.90;;;;;;8359593;28;20041;-47
2020/12/22 18:09:07;;;;;;;1.90;1.10;;;21.60;35.90;;;;;;8361933;28;20029;-46
2020/12/22 18:13:07;;;;;;;1.33;1.00;;;21.60;35.80;;;;;;8345881;28;20045;-47
2020/12/22 18:17:08;;;;;;;1.30;1.20;;;21.60;35.90;;;;;;8344298;28;20106;-45
2020/12/22 18:21:08;;;;;;;2.43;1.30;;;21.60;35.90;;;;;;8334473;28;20052;-45
2020/12/22 18:25:10;;;;;;;1.47;1.17;;;21.60;35.90;;;;;;8345280;28;20099;-45
2020/12/22 18:29:10;;;;;;;2.25;1.20;;;21.50;35.90;;;;;;8347722;28;20107;-46
2020/12/22 18:33:11;;;;;;;2.37;1.27;;;21.50;35.90;;;;;;8359257;28;20035;-45
2020/12/22 18:37:11;;;;;;;2.20;1.30;;;21.40;35.90;;;;;;8344817;28;20065;-46
2020/12/22 18:41:19;;;;;;;2.23;1.20;;;21.40;36.00;;;;;;8335930;28;20099;-46
2020/12/22 18:45:20;;;;;;;2.75;1.08;;;21.40;36.00;;;;;;8344005;28;20049;-46
2020/12/22 18:49:21;;;;;;;3.10;1.17;;;21.40;36.00;;;;;;8360045;28;20061;-46
2020/12/22 18:53:22;;;;;;;1.40;1.20;;;21.30;36.00;;;;;;8342305;28;20040;-45
2020/12/22 18:57:22;;;;;;;3.00;1.47;;;21.30;36.50;;;;;;8346355;28;20033;-45
2020/12/22 19:01:23;;;;;;;1.70;1.00;;;21.40;36.00;;;;;;8386243;28;20075;-51
2020/12/22 19:05:23;;;;;;;3.13;1.17;;;21.40;36.00;;;;;;8372596;28;20041;-47
2020/12/22 19:09:24;;;;;;;3.37;1.20;;;21.40;36.00;;;;;;8328365;28;20087;-47
2020/12/22 19:13:24;;;;;;;1.98;1.38;;;21.40;35.90;;;;;;8327728;28;20036;-48
2020/12/22 19:17:25;;;;;;;1.73;0.90;;;21.40;35.80;;;;;;8350408;28;20069;-49
2020/12/22 19:21:26;;;;;;;2.47;1.00;;;21.50;35.90;;;;;;8344512;28;20040;-48
2020/12/22 19:25:26;;;;;;;1.63;1.10;;;21.50;35.90;;;;;;8360678;28;20040;-48
2020/12/22 19:29:27;;;;;;;1.30;1.20;;;21.50;35.90;;;;;;8330036;28;20034;-48
2020/12/22 19:33:27;;;;;;;1.10;1.00;;;21.50;35.90;;;;;;8339904;28;20065;-47
2020/12/22 19:37:28;;;;;;;1.93;1.20;;;21.50;35.90;;;;;;8343589;28;20262;-48
2020/12/22 19:41:28;;;;;;;2.07;1.43;;;21.50;35.90;;;;;;8350016;28;20410;-49
2020/12/22 19:45:29;;;;;;;1.63;1.37;;;21.60;35.90;;;;;;8339814;28;20041;-50
2020/12/22 19:49:29;;;;;;;2.03;1.40;;;21.60;35.90;;;;;;8339008;28;20532;-49
2020/12/22 19:53:30;;;;;;;1.83;1.37;;;21.60;35.90;;;;;;8354599;28;20086;-51
2020/12/22 19:57:31;;;;;;;1.50;1.33;;;21.60;35.90;;;;;;8364065;28;20040;-48
2020/12/22 20:01:31;;;;;;;1.47;1.23;;;21.60;35.90;;;;;;8359584;28;20397;-48
2020/12/22 20:05:32;;;;;;;2.70;1.27;;;21.60;35.90;;;;;;8356852;28;20067;-49
2020/12/22 20:09:33;;;;;;;2.70;1.33;;;21.60;35.80;;;;;;8345979;28;20040;-49
2020/12/22 20:13:34;;;;;;;1.30;1.10;;;21.60;35.90;;;;;;8330906;28;20124;-52
2020/12/22 20:17:34;;;;;;;1.73;1.20;;;21.60;35.80;;;;;;8348706;28;20442;-50
2020/12/22 20:21:35;;;;;;;1.10;1.00;;;21.60;35.80;;;;;;8339347;28;20029;-48
2020/12/22 20:25:35;;;;;;;2.23;1.23;;;21.60;35.80;;;;;;8337497;28;20410;-48
2020/12/22 20:29:36;;;;;;;1.43;1.07;;;21.70;35.80;;;;;;8328231;28;20120;-48
2020/12/22 20:33:39;;;;;;;2.13;1.43;;;21.70;35.80;;;;;;8325562;28;20030;-51
2020/12/22 20:37:40;;;;;;;1.48;1.20;;;21.70;35.90;;;;;;8325958;28;20501;-48
2020/12/22 20:41:41;;;;;;;2.63;1.60;;;21.70;35.80;;;;;;8323184;28;20048;-50
2020/12/22 20:45:41;;;;;;;1.60;1.20;;;21.70;35.80;;;;;;8325341;28;20030;-48
2020/12/22 20:49:42;;;;;;;3.00;1.63;;;21.70;35.90;;;;;;8329798;28;20566;-48
2020/12/22 20:53:42;;;;;;;2.40;2.00;;;21.70;35.80;;;;;;8323631;28;20037;-49
2020/12/22 20:57:43;;;;;;;2.17;1.80;;;21.70;35.80;;;;;;8325181;28;20061;-48